createdAt,value
2023-05-18T00:00:11.993Z,20.44
2023-05-18T00:02:58.157Z,20.20
2023-05-18T00:05:52.330Z,20.39
2023-05-18T00:08:46.746Z,20.56
2023-05-18T00:11:41.164Z,20.70
2023-05-18T00:14:35.149Z,20.60
2023-05-18T00:17:29.672Z,20.63
2023-05-18T00:20:26.590Z,20.71
2023-05-18T00:23:20.760Z,20.68
2023-05-18T00:26:14.957Z,20.59
2023-05-18T00:29:09.326Z,20.62
2023-05-18T00:32:03.509Z,20.66
2023-05-18T00:34:57.521Z,20.71
2023-05-18T00:37:51.339Z,20.43
2023-05-18T00:40:46.247Z,20.46
2023-05-18T00:43:42.933Z,20.47
2023-05-18T00:46:37.149Z,20.34
2023-05-18T00:49:31.551Z,20.35
2023-05-18T00:52:26.920Z,20.52
2023-05-18T00:55:21.561Z,20.55
2023-05-18T00:58:16.170Z,20.29
2023-05-18T01:01:10.714Z,20.41
2023-05-18T01:04:05.165Z,20.52
2023-05-18T01:07:06.753Z,20.33
2023-05-18T01:10:01.296Z,20.37
2023-05-18T01:13:01.800Z,20.22
2023-05-18T01:16:02.434Z,20.34
2023-05-18T01:19:08.429Z,20.48
2023-05-18T01:22:14.924Z,20.43
2023-05-18T01:25:19.880Z,20.44
2023-05-18T01:28:19.471Z,20.35
2023-05-18T01:31:18.075Z,20.18
2023-05-18T01:34:12.223Z,20.38
2023-05-18T01:37:26.140Z,20.45
2023-05-18T01:41:04.434Z,20.54
2023-05-18T01:44:12.753Z,20.58
2023-05-18T01:47:29.014Z,20.61
2023-05-18T01:51:00.050Z,20.55
2023-05-18T01:54:21.772Z,20.58
2023-05-18T01:57:09.625Z,20.56
2023-05-18T02:00:08.008Z,20.34
2023-05-18T02:03:02.491Z,20.26
2023-05-18T02:05:57.155Z,20.42
2023-05-18T02:08:51.871Z,20.55
2023-05-18T02:11:46.803Z,20.59
2023-05-18T02:14:33.919Z,20.56
2023-05-18T02:17:28.906Z,20.50
2023-05-18T02:20:23.465Z,20.44
2023-05-18T02:23:17.759Z,20.42
2023-05-18T02:26:11.888Z,20.39
2023-05-18T02:29:06.726Z,20.46
2023-05-18T02:32:03.096Z,20.45
2023-05-18T02:34:57.884Z,20.40
2023-05-18T02:37:52.120Z,20.25
2023-05-18T02:40:46.151Z,20.37
2023-05-18T02:43:40.499Z,20.43
2023-05-18T02:46:34.814Z,20.47
2023-05-18T02:49:28.760Z,20.49
2023-05-18T02:52:22.707Z,20.53
2023-05-18T02:55:17.341Z,20.47
2023-05-18T02:58:13.687Z,20.35
2023-05-18T03:01:08.737Z,20.37
2023-05-18T03:04:03.025Z,20.44
2023-05-18T03:06:57.430Z,20.45
2023-05-18T03:09:51.537Z,20.47
2023-05-18T03:12:46.064Z,20.48
2023-05-18T03:15:40.648Z,20.34
2023-05-18T03:18:35.232Z,20.31
2023-05-18T03:21:34.161Z,20.30
2023-05-18T03:24:30.414Z,20.22
2023-05-18T03:27:26.726Z,20.42
2023-05-18T03:30:21.364Z,20.40
2023-05-18T03:33:15.740Z,20.37
2023-05-18T03:36:11.028Z,20.40
2023-05-18T03:39:06.035Z,20.14
2023-05-18T03:42:00.339Z,20.23
2023-05-18T03:44:54.722Z,20.16
2023-05-18T03:47:49.206Z,20.27
2023-05-18T03:50:43.863Z,20.25
2023-05-18T03:53:38.300Z,20.02
2023-05-18T03:56:32.410Z,20.03
2023-05-18T03:59:29.420Z,20.17
2023-05-18T04:02:13.242Z,20.15
2023-05-18T04:05:10.070Z,20.13
2023-05-18T04:08:05.057Z,19.87
2023-05-18T04:10:59.238Z,19.89
2023-05-18T04:13:53.495Z,20.01
2023-05-18T04:16:47.936Z,19.87
2023-05-18T04:19:42.104Z,19.97
2023-05-18T04:22:43.256Z,19.74
2023-05-18T04:25:39.492Z,19.56
2023-05-18T04:28:33.906Z,19.61
2023-05-18T04:31:28.031Z,19.62
2023-05-18T04:34:22.279Z,19.67
2023-05-18T04:37:18.029Z,19.73
2023-05-18T04:40:14.418Z,19.81
2023-05-18T04:43:08.689Z,19.68
2023-05-18T04:46:02.874Z,19.83
2023-05-18T04:48:58.088Z,19.87
2023-05-18T04:51:55.952Z,19.95
2023-05-18T04:54:41.036Z,19.97
2023-05-18T04:57:35.282Z,19.85
2023-05-18T05:00:30.924Z,19.92
2023-05-18T05:03:25.427Z,19.99
2023-05-18T05:06:19.959Z,19.91
2023-05-18T05:09:15.133Z,19.99
2023-05-18T05:12:10.916Z,19.87
2023-05-18T05:15:05.284Z,19.83
2023-05-18T05:18:08.055Z,19.78
2023-05-18T05:20:49.562Z,19.74
2023-05-18T05:23:45.304Z,19.68
2023-05-18T05:26:39.178Z,19.63
2023-05-18T05:29:33.248Z,19.89
2023-05-18T05:32:27.184Z,19.85
2023-05-18T05:35:21.304Z,19.81
2023-05-18T05:38:15.291Z,19.75
2023-05-18T05:41:09.686Z,19.68
2023-05-18T05:44:03.749Z,19.57
2023-05-18T05:46:57.669Z,19.56
2023-05-18T05:49:51.960Z,19.48
2023-05-18T05:52:46.316Z,19.81
2023-05-18T05:55:42.195Z,19.74
2023-05-18T05:58:36.693Z,19.67
2023-05-18T06:01:30.584Z,19.84
2023-05-18T06:04:28.102Z,19.94
2023-05-18T06:07:20.972Z,19.77
2023-05-18T06:10:15.282Z,19.85
2023-05-18T06:13:09.594Z,19.84
2023-05-18T06:16:03.554Z,20.09
2023-05-18T06:18:57.933Z,19.86
2023-05-18T06:21:52.268Z,19.42
2023-05-18T06:24:46.340Z,18.85
2023-05-18T06:27:42.466Z,19.60
2023-05-18T06:30:36.809Z,19.75
2023-05-18T06:33:30.965Z,19.88
2023-05-18T06:36:25.112Z,20.01
2023-05-18T06:39:19.115Z,19.95
2023-05-18T06:42:13.179Z,19.75
2023-05-18T06:45:08.864Z,19.71
2023-05-18T06:48:02.895Z,19.77
2023-05-18T06:50:56.957Z,19.36
2023-05-18T06:53:51.630Z,19.88
2023-05-18T06:56:46.921Z,20.00
2023-05-18T06:59:34.702Z,19.71
2023-05-18T07:02:28.590Z,19.49
2023-05-18T07:05:23.356Z,19.36
2023-05-18T07:08:17.491Z,19.35
2023-05-18T07:11:12.073Z,18.52
2023-05-18T07:14:06.115Z,19.24
2023-05-18T07:17:00.028Z,19.34
2023-05-18T07:19:54.610Z,19.30
2023-05-18T07:22:48.496Z,19.35
2023-05-18T07:25:42.368Z,19.20
2023-05-18T07:28:36.608Z,19.27
2023-05-18T07:31:30.912Z,19.44
2023-05-18T07:34:27.193Z,19.40
2023-05-18T07:37:21.255Z,19.18
2023-05-18T07:40:16.422Z,19.14
2023-05-18T07:43:10.536Z,19.23
2023-05-18T07:46:04.672Z,19.61
2023-05-18T07:48:58.825Z,19.49
2023-05-18T07:51:53.157Z,19.76
2023-05-18T07:54:33.945Z,19.64
2023-05-18T07:57:28.071Z,19.46
2023-05-18T08:00:24.351Z,19.63
2023-05-18T08:03:19.244Z,19.59
2023-05-18T08:06:13.149Z,19.34
2023-05-18T08:09:07.133Z,19.24
2023-05-18T08:12:01.329Z,19.02
2023-05-18T08:14:55.603Z,19.19
2023-05-18T08:17:52.570Z,19.68
2023-05-18T08:20:46.569Z,19.51
2023-05-18T08:23:41.434Z,19.29
2023-05-18T08:26:35.832Z,19.12
2023-05-18T08:29:29.976Z,19.06
2023-05-18T08:32:24.020Z,19.77
2023-05-18T08:35:18.040Z,19.91
2023-05-18T08:38:12.359Z,20.23
2023-05-18T08:41:18.233Z,19.68
2023-05-18T08:44:23.419Z,19.51
2023-05-18T08:47:28.732Z,19.70
2023-05-18T08:50:24.650Z,19.73
2023-05-18T08:53:19.682Z,19.58
2023-05-18T08:56:15.610Z,20.21
2023-05-18T08:59:11.879Z,20.03
2023-05-18T09:02:07.565Z,19.65
2023-05-18T09:05:02.630Z,19.47
2023-05-18T09:07:57.679Z,19.47
2023-05-18T09:10:53.053Z,19.55
2023-05-18T09:13:47.652Z,19.31
2023-05-18T09:16:41.883Z,19.37
2023-05-18T09:19:36.367Z,19.25
2023-05-18T09:22:31.123Z,19.13
2023-05-18T09:25:28.444Z,19.28
2023-05-18T09:28:37.269Z,19.34
2023-05-18T09:31:33.450Z,19.40
2023-05-18T09:34:41.203Z,19.54
2023-05-18T09:37:36.082Z,19.73
2023-05-18T09:40:34.624Z,19.77
2023-05-18T09:43:28.936Z,19.51
2023-05-18T09:46:23.621Z,19.22
2023-05-18T09:49:27.241Z,19.21
2023-05-18T09:52:21.536Z,19.31
2023-05-18T09:55:18.697Z,19.28
2023-05-18T09:58:12.744Z,19.21
2023-05-18T10:01:06.977Z,19.33
2023-05-18T10:04:06.408Z,19.42
2023-05-18T10:07:00.246Z,19.45
2023-05-18T10:10:07.141Z,19.33
2023-05-18T10:13:04.303Z,19.17
2023-05-18T10:16:00.635Z,19.39
2023-05-18T10:18:55.766Z,19.14
2023-05-18T10:21:52.378Z,19.23
2023-05-18T10:24:51.331Z,19.14
2023-05-18T10:27:47.896Z,19.43
2023-05-18T10:30:43.614Z,19.72
2023-05-18T10:33:39.373Z,19.44
2023-05-18T10:36:36.015Z,19.50
2023-05-18T10:39:31.567Z,19.52
2023-05-18T10:42:26.849Z,19.38
2023-05-18T10:45:21.258Z,19.24
2023-05-18T10:48:16.627Z,19.29
2023-05-18T10:51:11.954Z,19.48
2023-05-18T10:54:15.267Z,19.72
2023-05-18T10:57:11.802Z,19.40
2023-05-18T11:00:10.753Z,19.68
2023-05-18T11:03:08.790Z,19.58
2023-05-18T11:06:12.700Z,19.72
2023-05-18T11:09:05.842Z,19.80
2023-05-18T11:12:01.541Z,19.70
2023-05-18T11:14:58.036Z,19.92
2023-05-18T11:18:17.749Z,19.98
2023-05-18T11:21:52.840Z,19.91
2023-05-18T11:24:48.023Z,19.56
2023-05-18T11:27:42.746Z,19.91
2023-05-18T11:30:56.542Z,19.80
2023-05-18T11:33:51.004Z,19.81
2023-05-18T11:36:57.887Z,19.99
2023-05-18T11:40:02.998Z,19.88
2023-05-18T11:43:04.367Z,20.00
2023-05-18T11:46:01.454Z,19.72
2023-05-18T11:48:55.912Z,19.73
2023-05-18T11:52:08.896Z,19.62
2023-05-18T11:55:03.595Z,19.20
2023-05-18T11:57:57.451Z,20.01
2023-05-18T12:00:51.686Z,19.87
2023-05-18T12:03:48.506Z,19.96
2023-05-18T12:06:42.974Z,20.08
2023-05-18T12:09:35.208Z,20.08
2023-05-18T12:12:29.458Z,20.01
2023-05-18T12:15:28.716Z,20.14
2023-05-18T12:18:24.487Z,20.11
2023-05-18T12:21:22.256Z,19.92
2023-05-18T12:24:16.848Z,19.89
2023-05-18T12:27:13.249Z,20.05
2023-05-18T12:30:11.924Z,20.01
2023-05-18T12:33:07.091Z,20.15
2023-05-18T12:36:01.322Z,19.83
2023-05-18T12:38:55.745Z,19.89
2023-05-18T12:41:50.006Z,20.06
2023-05-18T12:44:45.829Z,20.24
2023-05-18T12:47:44.262Z,20.15
2023-05-18T12:50:38.883Z,19.88
2023-05-18T12:53:44.756Z,19.97
2023-05-18T12:57:02.014Z,19.99
2023-05-18T12:59:57.776Z,20.02
2023-05-18T13:02:51.586Z,19.95
2023-05-18T13:05:46.700Z,20.00
2023-05-18T13:08:41.431Z,19.62
2023-05-18T13:11:35.704Z,19.53
2023-05-18T13:14:31.483Z,19.59
2023-05-18T13:17:31.433Z,19.83
2023-05-18T13:20:26.219Z,19.65
2023-05-18T13:23:22.774Z,19.77
2023-05-18T13:26:18.788Z,19.81
2023-05-18T13:29:13.262Z,19.64
2023-05-18T13:32:08.695Z,19.78
2023-05-18T13:35:02.775Z,20.04
2023-05-18T13:37:57.138Z,20.03
2023-05-18T13:40:51.277Z,19.89
2023-05-18T13:43:45.525Z,19.81
2023-05-18T13:46:39.433Z,19.77
2023-05-18T13:49:29.490Z,19.77
2023-05-18T13:52:23.792Z,19.70
2023-05-18T13:55:18.125Z,19.81
2023-05-18T13:58:12.434Z,19.77
2023-05-18T14:01:08.748Z,19.57
2023-05-18T14:04:03.725Z,19.55
2023-05-18T14:06:58.420Z,19.40
2023-05-18T14:09:52.740Z,19.40
2023-05-18T14:12:47.259Z,19.20
2023-05-18T14:15:41.377Z,19.23
2023-05-18T14:18:35.501Z,19.22
2023-05-18T14:21:30.471Z,19.04
2023-05-18T14:24:24.706Z,19.09
2023-05-18T14:27:20.336Z,19.17
2023-05-18T14:30:15.420Z,19.28
2023-05-18T14:33:10.059Z,19.19
2023-05-18T14:36:04.105Z,19.19
2023-05-18T14:38:58.195Z,18.91
2023-05-18T14:41:52.097Z,19.08
2023-05-18T14:44:46.868Z,19.36
2023-05-18T14:47:41.378Z,19.07
2023-05-18T14:50:38.342Z,19.03
2023-05-18T14:53:32.719Z,19.01
2023-05-18T14:56:26.775Z,18.94
2023-05-18T14:59:21.240Z,18.40
2023-05-18T15:02:15.249Z,18.99
2023-05-18T15:05:11.323Z,19.16
2023-05-18T15:08:05.742Z,19.38
2023-05-18T15:10:59.864Z,19.55
2023-05-18T15:13:54.164Z,19.47
2023-05-18T15:16:48.190Z,19.54
2023-05-18T15:19:34.527Z,19.60
2023-05-18T15:22:28.741Z,19.55
2023-05-18T15:25:22.705Z,19.60
2023-05-18T15:28:16.700Z,19.57
2023-05-18T15:31:11.183Z,19.43
2023-05-18T15:34:05.261Z,19.43
2023-05-18T15:36:59.438Z,19.28
2023-05-18T15:39:54.035Z,19.38
2023-05-18T15:42:48.043Z,19.50
2023-05-18T15:45:42.239Z,19.79
2023-05-18T15:48:37.942Z,19.74
2023-05-18T15:51:32.215Z,19.90
2023-05-18T15:54:26.395Z,20.18
2023-05-18T15:57:20.516Z,19.87
2023-05-18T16:00:18.077Z,19.67
2023-05-18T16:03:15.402Z,19.76
2023-05-18T16:06:10.175Z,19.73
2023-05-18T16:09:04.384Z,19.90
2023-05-18T16:11:58.546Z,19.90
2023-05-18T16:14:52.906Z,19.88
2023-05-18T16:17:46.750Z,19.81
2023-05-18T16:20:41.091Z,19.89
2023-05-18T16:23:35.686Z,19.93
2023-05-18T16:26:29.876Z,19.79
2023-05-18T16:29:24.234Z,19.87
2023-05-18T16:32:18.841Z,20.03
2023-05-18T16:35:13.381Z,19.95
2023-05-18T16:38:07.362Z,19.94
2023-05-18T16:41:01.600Z,20.06
2023-05-18T16:43:55.689Z,20.16
2023-05-18T16:46:49.713Z,20.20
2023-05-18T16:49:45.459Z,20.27
2023-05-18T16:52:39.702Z,20.39
2023-05-18T16:55:43.799Z,20.19
2023-05-18T16:58:38.092Z,20.16
2023-05-18T17:01:32.674Z,20.13
2023-05-18T17:04:26.858Z,20.01
2023-05-18T17:07:21.674Z,20.00
2023-05-18T17:10:15.915Z,20.22
2023-05-18T17:13:10.017Z,20.38
2023-05-18T17:16:04.802Z,19.70
2023-05-18T17:18:58.815Z,20.02
2023-05-18T17:21:53.032Z,20.12
2023-05-18T17:24:47.200Z,20.35
2023-05-18T17:27:41.023Z,20.18
2023-05-18T17:30:35.080Z,20.21
2023-05-18T17:33:28.877Z,20.31
2023-05-18T17:36:23.670Z,20.37
2023-05-18T17:39:17.817Z,20.40
2023-05-18T17:42:12.418Z,20.36
2023-05-18T17:45:08.214Z,20.40
2023-05-18T17:48:02.446Z,20.20
2023-05-18T17:50:56.576Z,20.29
2023-05-18T17:53:51.097Z,20.38
2023-05-18T17:56:45.312Z,20.35
2023-05-18T17:59:39.545Z,20.35
2023-05-18T18:02:33.468Z,20.37
2023-05-18T18:05:28.020Z,20.40
2023-05-18T18:08:22.024Z,20.42
2023-05-18T18:11:16.037Z,20.32
2023-05-18T18:14:11.511Z,20.30
2023-05-18T18:17:05.765Z,20.45
2023-05-18T18:20:00.007Z,20.52
2023-05-18T18:22:53.996Z,20.45
2023-05-18T18:25:48.478Z,20.47
2023-05-18T18:28:42.614Z,20.45
2023-05-18T18:31:36.945Z,20.44
2023-05-18T18:34:30.897Z,20.45
2023-05-18T18:37:25.134Z,20.46
2023-05-18T18:40:19.926Z,20.47
2023-05-18T18:43:13.877Z,20.39
2023-05-18T18:46:08.001Z,20.40
2023-05-18T18:49:01.921Z,20.43
2023-05-18T18:51:58.629Z,20.41
2023-05-18T18:54:52.667Z,20.42
2023-05-18T18:57:47.264Z,20.42
2023-05-18T19:00:41.297Z,20.38
2023-05-18T19:03:36.042Z,20.41
2023-05-18T19:06:32.037Z,20.41
2023-05-18T19:09:28.721Z,20.38
2023-05-18T19:12:07.940Z,20.40
2023-05-18T19:15:01.778Z,20.37
2023-05-18T19:17:55.703Z,20.44
2023-05-18T19:20:50.460Z,20.44
2023-05-18T19:23:44.604Z,20.45
2023-05-18T19:29:38.336Z,20.48
2023-05-18T19:32:33.138Z,20.48
2023-05-18T19:35:27.730Z,20.48
2023-05-18T19:38:22.051Z,20.48
2023-05-18T19:41:16.226Z,20.46
2023-05-18T19:44:11.810Z,20.43
2023-05-18T19:47:06.804Z,19.74
2023-05-18T19:50:00.879Z,20.38
2023-05-18T19:52:55.114Z,20.54
2023-05-18T19:55:49.265Z,20.38
2023-05-18T19:58:43.459Z,20.37
2023-05-18T20:01:38.405Z,20.31
2023-05-18T20:04:33.749Z,20.34
2023-05-18T20:07:28.081Z,20.37
2023-05-18T20:10:22.092Z,20.39
2023-05-18T20:13:16.349Z,20.41
2023-05-18T20:16:11.182Z,20.37
2023-05-18T20:19:05.342Z,20.39
2023-05-18T20:21:59.608Z,20.35
2023-05-18T20:24:54.335Z,20.31
2023-05-18T20:27:48.407Z,20.38
2023-05-18T20:30:42.679Z,20.35
2023-05-18T20:33:37.265Z,20.37
2023-05-18T20:36:32.529Z,20.39
2023-05-18T20:39:28.662Z,20.35
2023-05-18T20:42:24.849Z,20.34
2023-05-18T20:45:20.032Z,20.33
2023-05-18T20:48:18.204Z,20.32
2023-05-18T20:51:23.256Z,20.33
2023-05-18T20:54:17.917Z,20.36
2023-05-18T20:57:12.407Z,20.33
2023-05-18T21:00:07.992Z,20.31
2023-05-18T21:03:04.356Z,20.14
2023-05-18T21:05:58.734Z,20.12
2023-05-18T21:08:53.444Z,20.18
2023-05-18T21:11:47.355Z,20.25
2023-05-18T21:14:41.698Z,20.21
2023-05-18T21:17:35.732Z,20.18
2023-05-18T21:20:30.173Z,20.06
2023-05-18T21:23:24.144Z,20.16
2023-05-18T21:26:18.551Z,20.15
2023-05-18T21:29:12.635Z,20.16
2023-05-18T21:32:07.083Z,20.24
2023-05-18T21:35:01.564Z,20.26
2023-05-18T21:37:55.562Z,20.28
2023-05-18T21:40:49.622Z,20.22
2023-05-18T21:43:43.739Z,20.25
2023-05-18T21:46:38.509Z,20.27
2023-05-18T21:49:32.718Z,20.25
2023-05-18T21:52:27.243Z,20.26
2023-05-18T21:55:21.379Z,20.19
2023-05-18T21:58:15.583Z,20.21
2023-05-18T22:01:09.724Z,20.19
2023-05-18T22:04:10.782Z,20.24
2023-05-18T22:07:20.717Z,20.26
2023-05-18T22:10:38.821Z,20.15
2023-05-18T22:13:42.416Z,20.26
2023-05-18T22:16:36.660Z,20.23
2023-05-18T22:19:30.830Z,20.23
2023-05-18T22:22:30.163Z,20.23
2023-05-18T22:25:25.934Z,20.22
2023-05-18T22:28:21.714Z,20.27
2023-05-18T22:31:16.385Z,20.27
2023-05-18T22:33:56.735Z,20.22
2023-05-18T22:36:50.955Z,20.07
2023-05-18T22:39:34.937Z,20.10
2023-05-18T22:42:29.327Z,20.18
2023-05-18T22:45:23.464Z,20.10
2023-05-18T22:48:17.486Z,20.07
2023-05-18T22:51:11.625Z,20.09
2023-05-18T22:54:05.689Z,20.02
2023-05-18T22:57:00.129Z,20.07
2023-05-18T22:59:54.054Z,19.51
2023-05-18T23:02:48.279Z,19.77
2023-05-18T23:05:43.381Z,20.01
2023-05-18T23:08:37.777Z,20.07
2023-05-18T23:11:34.914Z,20.03
2023-05-18T23:14:32.470Z,20.05
2023-05-18T23:17:26.682Z,20.11
2023-05-18T23:20:21.435Z,20.06
2023-05-18T23:23:15.579Z,20.05
2023-05-18T23:26:10.250Z,20.01
2023-05-18T23:29:04.439Z,20.10
2023-05-18T23:31:58.555Z,20.17
2023-05-18T23:34:54.241Z,20.17
2023-05-18T23:37:53.589Z,20.10
2023-05-18T23:40:48.284Z,20.04
2023-05-18T23:43:43.950Z,20.04
2023-05-18T23:46:39.396Z,20.07
2023-05-18T23:49:34.812Z,19.93
2023-05-18T23:52:30.443Z,20.01
2023-05-18T23:55:28.002Z,20.03
2023-05-18T23:58:20.573Z,20.01
